Time;durP1;ratioP1;P1;durP2;ratioP2;P2;SDS_P1;SDS_P2;PMS_P1;PMS_P2;Temp;Humidity;BMP_temperature;BMP_pressure;BME280_temperature;BME280_humidity;BME280_pressure;Samples;Min_cycle;Max_cycle;Signal;HPM_P1;HPM_P2
2021/03/27 00:00:19;;;;;;;66.13;55.88;;;;;21.60;100026.00;;;;2076052;28;20210;-47
2021/03/27 00:01:56;;;;;;;64.68;53.78;;;;;21.60;100023.00;;;;2077384;28;20234;-47
2021/03/27 00:03:02;;;;;;;65.85;55.08;;;;;21.60;100018.00;;;;2060499;28;20215;-47
2021/03/27 00:04:44;;;;;;;68.13;57.45;;;;;21.60;100032.00;;;;2052506;28;20223;-47
2021/03/27 00:06:28;;;;;;;67.25;54.47;;;;;21.60;100042.00;;;;2056260;28;20225;-46
2021/03/27 00:07:53;;;;;;;61.08;51.92;;;;;21.60;100037.00;;;;2056983;28;20218;-47
2021/03/27 00:08:57;;;;;;;54.22;41.75;;;;;21.60;100037.00;;;;2064684;28;20727;-47
2021/03/27 00:10:26;;;;;;;50.17;41.85;;;;;21.50;100032.00;;;;2055949;28;20314;-47
2021/03/27 00:11:35;;;;;;;50.20;41.58;;;;;21.60;100033.00;;;;2068253;28;20789;-47
2021/03/27 00:12:45;;;;;;;46.35;40.67;;;;;21.60;100032.00;;;;2074123;28;21052;-47
2021/03/27 00:14:01;;;;;;;52.85;43.70;;;;;21.60;100029.00;;;;2069344;28;20352;-46
2021/03/27 00:15:29;;;;;;;42.97;37.35;;;;;21.60;100033.00;;;;2070953;28;20224;-51
2021/03/27 00:16:37;;;;;;;44.67;37.53;;;;;21.50;100040.00;;;;2072912;28;20232;-47
2021/03/27 00:17:40;;;;;;;43.13;36.70;;;;;21.50;100033.00;;;;2060022;28;20215;-47
2021/03/27 00:18:59;;;;;;;47.05;41.28;;;;;21.50;100027.00;;;;2069298;28;20242;-46
2021/03/27 00:20:02;;;;;;;40.72;36.15;;;;;21.50;100043.00;;;;2076952;28;20230;-47
2021/03/27 00:21:22;;;;;;;38.35;33.53;;;;;21.50;100028.00;;;;2077657;28;20233;-47
2021/03/27 00:22:25;;;;;;;45.42;39.35;;;;;21.50;100044.00;;;;2077097;28;20267;-46
2021/03/27 00:23:49;;;;;;;41.63;35.25;;;;;21.50;100048.00;;;;2069499;28;20281;-46
2021/03/27 00:25:03;;;;;;;41.17;35.42;;;;;21.50;100040.00;;;;2072204;28;20226;-47
2021/03/27 00:26:05;;;;;;;38.42;31.73;;;;;21.50;100044.00;;;;2070870;28;20214;-48
2021/03/27 00:27:08;;;;;;;36.72;31.95;;;;;21.50;100042.00;;;;2069808;28;20222;-48
2021/03/27 00:28:23;;;;;;;38.17;31.92;;;;;21.50;100049.00;;;;2069333;28;20214;-46
2021/03/27 00:29:37;;;;;;;36.42;32.33;;;;;21.50;100049.00;;;;2071435;28;20311;-47
2021/03/27 00:31:00;;;;;;;35.33;31.30;;;;;21.50;100069.00;;;;2069346;28;20240;-47
2021/03/27 00:32:09;;;;;;;33.22;27.92;;;;;21.50;100102.00;;;;2072003;28;20263;-47
2021/03/27 00:33:10;;;;;;;30.95;26.50;;;;;21.50;100083.00;;;;2070134;28;20214;-47
2021/03/27 00:34:12;;;;;;;34.43;29.80;;;;;21.50;100091.00;;;;2069421;28;20211;-48
2021/03/27 00:35:30;;;;;;;32.28;28.75;;;;;21.50;100099.00;;;;2061741;28;21157;-47
2021/03/27 00:36:35;;;;;;;31.85;27.95;;;;;21.50;100103.00;;;;2071630;28;20224;-47
2021/03/27 00:37:35;;;;;;;30.42;25.65;;;;;21.50;100119.00;;;;2068265;28;20330;-50
2021/03/27 00:38:40;;;;;;;28.40;25.13;;;;;21.50;100115.00;;;;2071323;28;20219;-48
2021/03/27 00:40:01;;;;;;;29.95;25.38;;;;;21.50;100103.00;;;;2062397;28;20211;-48
2021/03/27 00:41:01;;;;;;;27.13;23.80;;;;;21.50;100108.00;;;;2058376;28;20218;-47
2021/03/27 00:42:04;;;;;;;30.17;26.83;;;;;21.50;100108.00;;;;2053030;28;20239;-46
2021/03/27 00:43:24;;;;;;;25.30;22.52;;;;;21.50;100112.00;;;;2053624;28;20287;-47
2021/03/27 00:44:30;;;;;;;28.20;25.20;;;;;21.40;100130.00;;;;2068323;28;20269;-47
2021/03/27 00:45:37;;;;;;;27.30;24.40;;;;;21.40;100123.00;;;;2069827;28;20630;-48
2021/03/27 00:46:38;;;;;;;22.50;20.10;;;;;21.40;100129.00;;;;2061818;28;20257;-47
2021/03/27 00:47:41;;;;;;;26.77;23.13;;;;;21.40;100142.00;;;;2070289;28;20203;-47
2021/03/27 00:48:43;;;;;;;24.90;21.58;;;;;21.40;100137.00;;;;2069105;28;20477;-47
2021/03/27 00:49:51;;;;;;;26.25;23.40;;;;;21.40;100126.00;;;;2069709;28;20211;-47
2021/03/27 00:50:55;;;;;;;21.15;18.92;;;;;21.40;100144.00;;;;2068298;28;20230;-48
2021/03/27 00:52:02;;;;;;;21.83;19.48;;;;;21.40;100141.00;;;;2062435;28;20690;-47
2021/03/27 00:53:14;;;;;;;23.98;21.45;;;;;21.40;100147.00;;;;2077140;28;20691;-48
2021/03/27 00:54:22;;;;;;;21.80;19.30;;;;;21.40;100147.00;;;;2076818;28;20242;-48
2021/03/27 00:55:28;;;;;;;24.70;22.02;;;;;21.40;100148.00;;;;2077180;28;20330;-48
2021/03/27 00:56:53;;;;;;;23.50;19.58;;;;;21.40;100152.00;;;;2077332;28;20221;-48
2021/03/27 00:58:01;;;;;;;19.08;17.08;;;;;21.40;100147.00;;;;2072464;28;20233;-47
2021/03/27 00:59:07;;;;;;;20.92;18.77;;;;;21.40;100157.00;;;;2072343;28;20205;-48
2021/03/27 01:00:28;;;;;;;21.75;19.42;;;;;21.40;100149.00;;;;2069333;28;20226;-46
2021/03/27 01:01:35;;;;;;;21.77;19.48;;;;;21.40;100158.00;;;;2063424;28;20258;-47
2021/03/27 01:02:36;;;;;;;22.30;18.38;;;;;21.40;100130.00;;;;2066460;28;20678;-48
2021/03/27 01:03:40;;;;;;;20.08;17.95;;;;;21.40;100133.00;;;;2059906;28;20711;-47
2021/03/27 01:04:40;;;;;;;23.10;20.48;;;;;21.40;100127.00;;;;2044855;28;20224;-47
2021/03/27 01:05:41;;;;;;;16.90;15.17;;;;;21.40;100139.00;;;;2051885;28;20362;-47
2021/03/27 01:06:44;;;;;;;17.20;15.40;;;;;21.40;100136.00;;;;2068353;28;20211;-48
2021/03/27 01:07:45;;;;;;;17.92;15.90;;;;;21.40;100149.00;;;;2068382;28;20227;-46
2021/03/27 01:08:47;;;;;;;20.80;18.55;;;;;21.40;100140.00;;;;2058955;28;20221;-47
2021/03/27 01:09:55;;;;;;;16.60;14.80;;;;;21.40;100147.00;;;;2053698;28;20294;-48
2021/03/27 01:11:00;;;;;;;18.23;16.30;;;;;21.30;100153.00;;;;2060815;28;20219;-47
2021/03/27 01:12:05;;;;;;;16.27;14.43;;;;;21.30;100160.00;;;;2053554;28;20227;-47
2021/03/27 01:13:08;;;;;;;14.43;12.63;;;;;21.30;100167.00;;;;2060167;28;20230;-48
2021/03/27 01:14:14;;;;;;;18.00;16.00;;;;;21.30;100176.00;;;;2069281;28;20662;-46
2021/03/27 01:15:53;;;;;;;13.38;12.07;;;;;21.40;100175.00;;;;2053180;28;20226;-48
2021/03/27 01:16:55;;;;;;;13.02;11.43;;;;;21.30;100157.00;;;;2057082;28;20294;-48
2021/03/27 01:17:57;;;;;;;16.48;14.23;;;;;21.30;100168.00;;;;2059383;28;20217;-47
2021/03/27 01:19:04;;;;;;;14.27;12.77;;;;;21.30;100187.00;;;;2061295;28;20226;-48
2021/03/27 01:20:15;;;;;;;18.67;16.45;;;;;21.30;100187.00;;;;2068527;28;20222;-47
2021/03/27 01:21:24;;;;;;;13.10;11.77;;;;;21.30;100177.00;;;;2070245;28;20277;-48
2021/03/27 01:22:24;;;;;;;12.52;11.15;;;;;21.30;100183.00;;;;2071050;28;20231;-46
2021/03/27 01:23:25;;;;;;;11.57;10.47;;;;;21.10;100187.00;;;;2076971;28;20313;-47
2021/03/27 01:24:27;;;;;;;12.33;10.30;;;;;21.30;100179.00;;;;2076937;28;20649;-47
2021/03/27 01:25:29;;;;;;;12.70;11.10;;;;;21.30;100183.00;;;;2069053;28;20654;-47
2021/03/27 01:26:35;;;;;;;12.40;11.10;;;;;21.30;100176.00;;;;2068806;28;20226;-48
2021/03/27 01:27:59;;;;;;;12.60;11.27;;;;;21.30;100188.00;;;;2069965;28;20219;-48
2021/03/27 01:29:04;;;;;;;11.48;10.27;;;;;21.30;100192.00;;;;2072424;28;20228;-46
2021/03/27 01:30:27;;;;;;;11.73;9.60;;;;;21.30;100180.00;;;;2062392;28;20218;-47
2021/03/27 01:31:31;;;;;;;11.43;9.35;;;;;21.30;100184.00;;;;2057921;28;20726;-46
2021/03/27 01:32:48;;;;;;;11.02;9.32;;;;;21.30;100176.00;;;;2083667;28;20718;-47
2021/03/27 01:34:22;;;;;;;11.13;10.02;;;;;21.30;100205.00;;;;2078697;28;20267;-47
2021/03/27 01:35:33;;;;;;;10.77;9.75;;;;;21.30;100200.00;;;;2078678;28;20210;-47
2021/03/27 01:36:38;;;;;;;10.38;9.38;;;;;21.30;100196.00;;;;2071718;28;20226;-47
2021/03/27 01:37:56;;;;;;;10.65;9.55;;;;;21.30;100210.00;;;;2067361;28;20668;-46
2021/03/27 01:38:57;;;;;;;11.77;9.70;;;;;21.20;100206.00;;;;2063349;28;20716;-46
2021/03/27 01:40:07;;;;;;;10.95;9.95;;;;;21.30;100140.00;;;;2062662;28;20719;-47
2021/03/27 01:41:10;;;;;;;9.93;9.02;;;;;21.30;100198.00;;;;2075118;28;20214;-47
2021/03/27 01:42:37;;;;;;;9.43;8.52;;;;;21.20;100207.00;;;;2077209;28;20306;-47
2021/03/27 01:43:54;;;;;;;10.35;9.35;;;;;21.20;100205.00;;;;2073669;28;20223;-47
2021/03/27 01:45:22;;;;;;;9.85;8.85;;;;;21.20;100221.00;;;;2074803;28;20245;-48
2021/03/27 01:46:26;;;;;;;8.88;7.97;;;;;21.20;100220.00;;;;2061358;28;20337;-47
2021/03/27 01:47:47;;;;;;;9.02;8.13;;;;;21.20;100201.00;;;;2062671;28;20223;-47
2021/03/27 01:49:14;;;;;;;8.57;7.70;;;;;21.20;100205.00;;;;2072565;28;20301;-47
2021/03/27 01:50:27;;;;;;;9.10;8.10;;;;;21.20;100202.00;;;;2078119;28;20210;-47
2021/03/27 01:51:48;;;;;;;8.15;7.35;;;;;21.20;100207.00;;;;2079194;28;20709;-47
2021/03/27 01:53:10;;;;;;;7.70;6.90;;;;;21.20;100230.00;;;;2079165;28;20252;-47
2021/03/27 01:54:12;;;;;;;9.25;8.38;;;;;21.20;100213.00;;;;2076601;28;20222;-47
2021/03/27 01:55:25;;;;;;;8.52;7.43;;;;;21.20;100213.00;;;;2062122;28;20247;-47
2021/03/27 01:56:39;;;;;;;7.95;7.25;;;;;21.20;100214.00;;;;2069287;28;20218;-47
2021/03/27 01:57:50;;;;;;;6.57;5.97;;;;;21.20;100213.00;;;;2072006;28;20300;-47
2021/03/27 01:59:10;;;;;;;7.47;6.38;;;;;21.10;100215.00;;;;2063462;28;20680;-48
2021/03/27 02:00:17;;;;;;;7.50;6.78;;;;;21.20;100204.00;;;;2065138;28;20210;-48
2021/03/27 02:01:23;;;;;;;7.90;7.13;;;;;21.10;100224.00;;;;2060741;28;20274;-46
2021/03/27 02:02:44;;;;;;;8.23;6.95;;;;;21.20;100219.00;;;;2060150;28;20714;-48
2021/03/27 02:03:44;;;;;;;6.95;6.25;;;;;21.20;100215.00;;;;2064475;28;20223;-48
2021/03/27 02:04:56;;;;;;;8.47;7.10;;;;;21.20;100217.00;;;;2074920;28;20210;-47
2021/03/27 02:06:39;;;;;;;6.00;5.40;;;;;21.10;100226.00;;;;2078344;28;20217;-46
2021/03/27 02:07:48;;;;;;;7.13;6.43;;;;;21.10;100219.00;;;;2074535;28;20312;-47
2021/03/27 02:08:53;;;;;;;6.85;6.22;;;;;21.10;100222.00;;;;2073245;28;20205;-47
2021/03/27 02:10:08;;;;;;;7.00;6.18;;;;;21.10;100220.00;;;;2074091;28;20731;-47
2021/03/27 02:11:29;;;;;;;6.03;5.40;;;;;20.90;100222.00;;;;2062276;28;20222;-46
2021/03/27 02:12:41;;;;;;;6.18;5.57;;;;;21.10;100215.00;;;;2072730;28;20206;-48
2021/03/27 02:14:00;;;;;;;5.80;5.22;;;;;21.10;100203.00;;;;2078802;28;20221;-48
2021/03/27 02:15:15;;;;;;;5.38;4.88;;;;;21.10;100227.00;;;;2073899;28;20226;-47
2021/03/27 02:16:28;;;;;;;4.93;4.45;;;;;21.10;100232.00;;;;2056003;28;20319;-47
2021/03/27 02:18:04;;;;;;;6.20;5.50;;;;;21.10;100233.00;;;;2065892;28;20235;-47
2021/03/27 02:19:32;;;;;;;5.00;4.50;;;;;21.10;100241.00;;;;2070465;28;20253;-46
2021/03/27 02:21:13;;;;;;;6.68;5.38;;;;;21.10;100240.00;;;;2076884;28;20244;-47
2021/03/27 02:22:24;;;;;;;5.65;4.55;;;;;21.10;100257.00;;;;2068864;28;20277;-48
2021/03/27 02:23:36;;;;;;;5.57;4.50;;;;;21.10;100243.00;;;;2062933;28;20314;-48
2021/03/27 02:24:49;;;;;;;4.40;4.00;;;;;21.10;100173.00;;;;2070293;28;20211;-47
2021/03/27 02:26:20;;;;;;;4.57;4.18;;;;;21.10;100236.00;;;;2070296;28;20240;-47
2021/03/27 02:27:42;;;;;;;4.80;4.28;;;;;21.10;100237.00;;;;2053972;28;20211;-47
2021/03/27 02:29:04;;;;;;;4.40;4.00;;;;;21.10;100229.00;;;;2075863;28;20212;-47
2021/03/27 02:30:12;;;;;;;5.82;4.50;;;;;21.10;100236.00;;;;2077052;28;20773;-47
2021/03/27 02:31:21;;;;;;;4.63;4.18;;;;;21.10;100236.00;;;;2063206;28;20223;-46
2021/03/27 02:32:35;;;;;;;4.93;4.00;;;;;21.10;100244.00;;;;2064811;28;20298;-47
2021/03/27 02:33:47;;;;;;;4.60;3.83;;;;;21.10;100231.00;;;;2072788;28;21154;-46
2021/03/27 02:34:48;;;;;;;4.72;3.85;;;;;21.10;100243.00;;;;2078190;28;20687;-47
2021/03/27 02:36:08;;;;;;;3.90;3.35;;;;;21.10;100234.00;;;;2062006;28;20234;-46
2021/03/27 02:37:28;;;;;;;5.22;4.53;;;;;21.00;100252.00;;;;2066225;28;20219;-48
2021/03/27 02:38:55;;;;;;;4.25;3.85;;;;;21.00;100249.00;;;;2070531;28;21009;-47
2021/03/27 02:39:58;;;;;;;3.97;3.55;;;;;21.00;100253.00;;;;2067257;28;20703;-47
2021/03/27 02:41:04;;;;;;;4.00;3.60;;;;;21.00;100252.00;;;;2060771;28;20227;-47
2021/03/27 02:42:24;;;;;;;4.75;3.38;;;;;21.00;100263.00;;;;2069204;28;20219;-47
2021/03/27 02:43:32;;;;;;;3.78;3.40;;;;;21.00;100259.00;;;;2061789;28;20277;-46
2021/03/27 02:44:55;;;;;;;3.72;3.00;;;;;21.00;100257.00;;;;2068887;28;20226;-47
2021/03/27 02:45:59;;;;;;;3.83;2.95;;;;;21.00;100254.00;;;;2072348;28;20676;-47
2021/03/27 02:47:28;;;;;;;4.30;3.35;;;;;21.00;100263.00;;;;2073276;28;20224;-47
2021/03/27 02:48:59;;;;;;;2.97;2.67;;;;;21.00;100255.00;;;;2069918;28;20217;-47
2021/03/27 02:50:24;;;;;;;2.92;2.63;;;;;21.00;100257.00;;;;2070204;28;20233;-46
2021/03/27 02:51:33;;;;;;;3.15;2.85;;;;;21.00;100258.00;;;;2078124;28;20245;-47
2021/03/27 02:52:58;;;;;;;2.97;2.65;;;;;21.00;100255.00;;;;2078123;28;20218;-47
2021/03/27 02:54:04;;;;;;;3.22;2.60;;;;;21.00;100261.00;;;;2066700;28;20264;-47
2021/03/27 02:55:07;;;;;;;3.10;2.80;;;;;21.00;100272.00;;;;2077859;28;20214;-47
2021/03/27 02:56:23;;;;;;;3.50;3.17;;;;;21.00;100259.00;;;;2078395;28;20245;-47
2021/03/27 02:57:30;;;;;;;3.70;3.05;;;;;21.00;100268.00;;;;2076909;28;20360;-47
2021/03/27 02:58:34;;;;;;;3.60;2.72;;;;;21.00;100281.00;;;;2062428;28;20211;-47
2021/03/27 02:59:39;;;;;;;2.60;2.40;;;;;21.00;100272.00;;;;2062521;28;20219;-47
2021/03/27 03:00:49;;;;;;;2.58;2.10;;;;;21.00;100271.00;;;;2069768;28;20301;-47
2021/03/27 03:02:01;;;;;;;2.45;2.22;;;;;21.00;100284.00;;;;2074238;28;20224;-47
2021/03/27 03:03:05;;;;;;;2.80;2.40;;;;;21.00;100266.00;;;;2071318;28;20222;-46
2021/03/27 03:04:27;;;;;;;3.22;2.25;;;;;21.00;100264.00;;;;2069720;28;20637;-47
2021/03/27 03:05:33;;;;;;;2.85;2.28;;;;;21.00;100278.00;;;;2060294;28;20610;-47
2021/03/27 03:06:57;;;;;;;2.90;2.30;;;;;21.00;100273.00;;;;2069906;28;20297;-47
2021/03/27 03:08:42;;;;;;;2.53;2.33;;;;;21.00;100276.00;;;;2075186;28;20221;-47
2021/03/27 03:09:50;;;;;;;2.78;1.85;;;;;21.00;100285.00;;;;2075587;28;20218;-47
2021/03/27 03:11:02;;;;;;;2.63;1.90;;;;;21.00;100293.00;;;;2059970;28;20221;-47
2021/03/27 03:12:05;;;;;;;2.13;1.92;;;;;21.00;100291.00;;;;2056859;28;20235;-46
2021/03/27 03:13:44;;;;;;;3.13;2.25;;;;;21.00;100293.00;;;;2061673;28;20215;-47
2021/03/27 03:14:59;;;;;;;3.10;2.20;;;;;20.90;100297.00;;;;2073138;28;20214;-47
2021/03/27 03:16:02;;;;;;;2.33;1.95;;;;;21.00;100296.00;;;;2069278;28;20214;-48
2021/03/27 03:17:21;;;;;;;2.85;2.10;;;;;21.00;100311.00;;;;2070586;28;20727;-48
2021/03/27 03:18:30;;;;;;;2.25;2.00;;;;;21.00;100307.00;;;;2078608;28;20218;-46
2021/03/27 03:19:38;;;;;;;2.88;1.95;;;;;21.00;100307.00;;;;2077455;28;20253;-46
2021/03/27 03:21:10;;;;;;;2.42;2.22;;;;;20.90;100303.00;;;;2068907;28;20221;-46
2021/03/27 03:22:23;;;;;;;2.30;2.10;;;;;20.90;100299.00;;;;2074093;28;20280;-47
2021/03/27 03:23:37;;;;;;;3.35;2.50;;;;;20.90;100317.00;;;;2069762;28;20234;-48
2021/03/27 03:24:38;;;;;;;1.80;1.60;;;;;20.90;100315.00;;;;2072220;28;20248;-47
2021/03/27 03:25:56;;;;;;;2.40;2.10;;;;;20.90;100333.00;;;;2065200;28;20220;-47
2021/03/27 03:27:12;;;;;;;3.00;1.95;;;;;20.90;100313.00;;;;2061488;28;20474;-47
2021/03/27 03:28:31;;;;;;;2.33;1.73;;;;;20.90;100334.00;;;;2059085;28;20215;-47
2021/03/27 03:29:46;;;;;;;2.85;2.05;;;;;20.90;100319.00;;;;2063607;28;20688;-47
2021/03/27 03:30:55;;;;;;;2.63;1.77;;;;;20.90;100324.00;;;;2068850;28;20875;-46
2021/03/27 03:32:02;;;;;;;3.55;1.90;;;;;20.90;100323.00;;;;2069652;28;20249;-47
2021/03/27 03:33:11;;;;;;;2.72;2.05;;;;;20.90;100324.00;;;;2062218;28;20230;-47
2021/03/27 03:34:20;;;;;;;2.20;1.80;;;;;20.90;100316.00;;;;2069491;28;20213;-47
2021/03/27 03:35:42;;;;;;;2.70;1.80;;;;;20.90;100330.00;;;;2069672;28;20214;-48
2021/03/27 03:37:05;;;;;;;2.30;1.70;;;;;20.90;100333.00;;;;2077043;28;20217;-47
2021/03/27 03:38:36;;;;;;;2.80;1.80;;;;;20.90;100330.00;;;;2072836;28;20218;-47
2021/03/27 03:39:46;;;;;;;1.70;1.40;;;;;20.90;100330.00;;;;2076952;28;20279;-47
2021/03/27 03:40:58;;;;;;;2.20;1.98;;;;;20.90;100342.00;;;;2068879;28;20223;-48
2021/03/27 03:42:06;;;;;;;3.45;1.80;;;;;20.90;100335.00;;;;2073037;28;20256;-47
2021/03/27 03:43:15;;;;;;;2.40;1.50;;;;;20.90;100342.00;;;;2077781;28;20734;-48
2021/03/27 03:44:22;;;;;;;2.00;1.60;;;;;20.90;100335.00;;;;2070315;28;20221;-47
2021/03/27 03:45:50;;;;;;;2.38;1.45;;;;;20.90;100341.00;;;;2077717;28;20229;-47
2021/03/27 03:47:20;;;;;;;1.50;1.25;;;;;20.90;100331.00;;;;2078210;28;20244;-47
2021/03/27 03:49:02;;;;;;;2.08;1.58;;;;;20.80;100343.00;;;;2074825;28;20249;-47
2021/03/27 03:50:31;;;;;;;3.85;1.90;;;;;20.80;100343.00;;;;2073004;28;20217;-50
2021/03/27 03:51:38;;;;;;;3.58;1.73;;;;;20.80;100344.00;;;;2077612;28;20210;-46
2021/03/27 03:53:11;;;;;;;2.08;1.50;;;;;20.80;100343.00;;;;2076585;28;20210;-49
2021/03/27 03:54:42;;;;;;;2.55;1.90;;;;;20.80;100349.00;;;;2076733;28;20210;-46
2021/03/27 03:56:08;;;;;;;2.15;1.17;;;;;20.80;100352.00;;;;2075243;28;20209;-47
2021/03/27 03:57:30;;;;;;;1.95;1.45;;;;;20.80;100355.00;;;;2074730;28;20279;-46
2021/03/27 03:58:50;;;;;;;3.03;1.63;;;;;20.80;100369.00;;;;2076011;28;20218;-47
2021/03/27 03:59:53;;;;;;;1.58;1.10;;;;;20.80;100313.00;;;;2074531;28;20225;-47
2021/03/27 04:00:56;;;;;;;2.50;1.33;;;;;20.80;100363.00;;;;2076257;28;20320;-48
2021/03/27 04:02:22;;;;;;;2.05;1.40;;;;;20.80;100357.00;;;;2077545;28;20633;-46
2021/03/27 04:03:31;;;;;;;3.00;1.67;;;;;20.80;100365.00;;;;2071617;28;20222;-47
2021/03/27 04:04:55;;;;;;;1.75;1.25;;;;;20.80;100353.00;;;;2064786;28;20221;-47
2021/03/27 04:06:00;;;;;;;2.15;1.40;;;;;20.80;100365.00;;;;2067543;28;20269;-47
2021/03/27 04:07:04;;;;;;;2.00;1.38;;;;;20.80;100360.00;;;;2061733;28;20314;-47
2021/03/27 04:08:37;;;;;;;2.10;1.73;;;;;20.80;100356.00;;;;2065789;28;20239;-47
2021/03/27 04:09:58;;;;;;;1.83;1.25;;;;;20.80;100363.00;;;;2064524;28;20302;-47
2021/03/27 04:11:05;;;;;;;1.75;1.35;;;;;20.80;100351.00;;;;2067674;28;20595;-47
2021/03/27 04:12:20;;;;;;;3.03;1.83;;;;;20.80;100364.00;;;;2066477;28;20223;-45
2021/03/27 04:13:25;;;;;;;2.55;1.45;;;;;20.80;100370.00;;;;2071301;28;20273;-46
2021/03/27 04:14:44;;;;;;;1.88;1.40;;;;;20.80;100370.00;;;;2071458;28;20279;-47
2021/03/27 04:15:47;;;;;;;1.92;1.30;;;;;20.80;100363.00;;;;2072456;28;20211;-48
2021/03/27 04:16:47;;;;;;;2.35;1.60;;;;;20.80;100379.00;;;;2069575;28;20233;-46
2021/03/27 04:18:25;;;;;;;2.07;1.50;;;;;20.70;100378.00;;;;2060148;28;20310;-47
2021/03/27 04:19:25;;;;;;;1.70;1.40;;;;;20.80;100369.00;;;;2070821;28;20217;-47
2021/03/27 04:20:32;;;;;;;1.50;1.27;;;;;20.80;100376.00;;;;2067497;28;20620;-46
2021/03/27 04:21:38;;;;;;;2.55;1.65;;;;;20.80;100371.00;;;;2069525;28;20211;-47
2021/03/27 04:22:47;;;;;;;1.88;1.08;;;;;20.80;100368.00;;;;2059943;28;20223;-47
2021/03/27 04:23:49;;;;;;;1.90;1.33;;;;;20.70;100385.00;;;;2054322;28;20301;-47
2021/03/27 04:25:02;;;;;;;2.00;1.20;;;;;20.70;100367.00;;;;2053660;28;20230;-47
2021/03/27 04:26:35;;;;;;;1.83;1.33;;;;;20.70;100376.00;;;;2062845;28;20222;-47
2021/03/27 04:27:39;;;;;;;3.47;1.63;;;;;20.80;100371.00;;;;2068127;28;21492;-47
2021/03/27 04:28:40;;;;;;;2.20;1.20;;;;;20.70;100371.00;;;;2059485;28;20721;-47
2021/03/27 04:29:42;;;;;;;1.70;1.40;;;;;20.70;100370.00;;;;2068921;28;20226;-48
2021/03/27 04:31:15;;;;;;;2.25;1.42;;;;;20.70;100369.00;;;;2076525;28;20210;-47
2021/03/27 04:32:52;;;;;;;2.63;1.85;;;;;20.70;100375.00;;;;2076987;28;20256;-47
2021/03/27 04:34:10;;;;;;;1.88;0.90;;;;;20.70;100380.00;;;;2069554;28;20353;-46
2021/03/27 04:35:26;;;;;;;1.60;1.30;;;;;20.70;100379.00;;;;2060749;28;20273;-47
2021/03/27 04:36:30;;;;;;;2.35;1.45;;;;;20.70;100371.00;;;;2070926;28;20205;-47
2021/03/27 04:38:04;;;;;;;1.88;1.30;;;;;20.70;100384.00;;;;2069024;28;20207;-48
2021/03/27 04:39:22;;;;;;;2.45;1.50;;;;;20.70;100388.00;;;;2073374;28;20221;-47
2021/03/27 04:40:27;;;;;;;2.50;1.30;;;;;20.70;100386.00;;;;2063547;28;20211;-47
2021/03/27 04:41:39;;;;;;;2.25;1.60;;;;;20.70;100382.00;;;;2069322;28;20687;-48
2021/03/27 04:42:46;;;;;;;1.75;1.15;;;;;20.70;100387.00;;;;2072502;28;20569;-48
2021/03/27 04:43:59;;;;;;;1.40;1.17;;;;;20.70;100383.00;;;;2074138;28;20245;-46
2021/03/27 04:45:17;;;;;;;2.13;1.40;;;;;20.70;100384.00;;;;2069040;28;20219;-47
2021/03/27 04:46:32;;;;;;;2.08;1.30;;;;;20.70;100395.00;;;;2071913;28;20280;-47
2021/03/27 04:47:34;;;;;;;1.75;1.00;;;;;20.70;100389.00;;;;2076788;28;20260;-47
2021/03/27 04:48:49;;;;;;;2.10;1.00;;;;;20.70;100397.00;;;;2069758;28;20214;-46
2021/03/27 04:49:59;;;;;;;2.40;1.40;;;;;20.70;100393.00;;;;2062424;28;20219;-47
2021/03/27 04:51:28;;;;;;;2.90;1.30;;;;;20.70;100395.00;;;;2061605;28;20222;-46
2021/03/27 04:52:43;;;;;;;3.25;1.40;;;;;20.70;100397.00;;;;2068079;28;20218;-47
2021/03/27 04:53:53;;;;;;;2.13;1.13;;;;;20.70;100393.00;;;;2072090;28;20233;-47
2021/03/27 04:54:56;;;;;;;2.45;1.60;;;;;20.70;100395.00;;;;2062005;28;20220;-47
2021/03/27 04:56:18;;;;;;;2.45;1.40;;;;;20.70;100401.00;;;;2052533;28;20240;-47
2021/03/27 04:57:18;;;;;;;4.72;1.30;;;;;20.70;100397.00;;;;2067788;28;20230;-48
2021/03/27 04:58:54;;;;;;;2.27;1.40;;;;;20.70;100397.00;;;;2077933;28;20300;-47
2021/03/27 05:00:27;;;;;;;1.48;1.00;;;;;20.60;100393.00;;;;2076923;28;20346;-48
2021/03/27 05:01:33;;;;;;;2.03;1.13;;;;;20.60;100399.00;;;;2073156;28;20220;-46
2021/03/27 05:02:39;;;;;;;1.48;1.30;;;;;20.60;100402.00;;;;2077532;28;20229;-47
2021/03/27 05:03:47;;;;;;;2.90;1.70;;;;;20.60;100392.00;;;;2078175;28;20714;-47
2021/03/27 05:05:00;;;;;;;1.95;1.42;;;;;20.60;100395.00;;;;2068727;28;20218;-46
2021/03/27 05:06:04;;;;;;;2.30;1.20;;;;;20.70;100408.00;;;;2071467;28;20218;-47
2021/03/27 05:07:11;;;;;;;2.13;1.20;;;;;20.70;100405.00;;;;2070312;28;20218;-47
2021/03/27 05:08:15;;;;;;;2.08;1.35;;;;;20.60;100403.00;;;;2055986;28;20229;-47
2021/03/27 05:09:35;;;;;;;3.30;1.70;;;;;20.60;100406.00;;;;2065445;28;20237;-47
2021/03/27 05:10:40;;;;;;;2.05;1.38;;;;;20.60;100398.00;;;;2074035;28;20217;-47
2021/03/27 05:12:22;;;;;;;2.70;1.20;;;;;20.60;100414.00;;;;2068738;28;20237;-47
2021/03/27 05:13:25;;;;;;;2.92;1.50;;;;;20.60;100413.00;;;;2066171;28;20285;-47
2021/03/27 05:14:45;;;;;;;1.92;1.15;;;;;20.60;100417.00;;;;2065278;28;20222;-47
2021/03/27 05:16:03;;;;;;;1.95;1.00;;;;;20.60;100432.00;;;;2072968;28;21213;-48
2021/03/27 05:17:22;;;;;;;2.78;1.50;;;;;20.60;100425.00;;;;2072955;28;20301;-47
2021/03/27 05:18:28;;;;;;;2.42;1.50;;;;;20.60;100426.00;;;;2065668;28;20743;-47
2021/03/27 05:19:44;;;;;;;1.58;1.30;;;;;20.60;100429.00;;;;2069154;28;20270;-47
2021/03/27 05:20:44;;;;;;;2.00;1.08;;;;;20.60;100423.00;;;;2072953;28;20241;-47
2021/03/27 05:21:59;;;;;;;2.43;1.30;;;;;20.60;100410.00;;;;2068796;28;20651;-47
2021/03/27 05:23:11;;;;;;;2.55;1.00;;;;;20.60;100424.00;;;;2076992;28;20224;-47
2021/03/27 05:24:20;;;;;;;3.50;1.10;;;;;20.60;100424.00;;;;2070034;28;20222;-48
2021/03/27 05:25:45;;;;;;;2.20;1.30;;;;;20.60;100426.00;;;;2076748;28;20308;-48
2021/03/27 05:27:09;;;;;;;2.00;1.20;;;;;20.60;100425.00;;;;2077455;28;20209;-48
2021/03/27 05:28:18;;;;;;;2.40;1.42;;;;;20.60;100416.00;;;;2076774;28;20245;-47
2021/03/27 05:29:42;;;;;;;4.30;1.50;;;;;20.60;100424.00;;;;2076497;28;20438;-47
2021/03/27 05:31:16;;;;;;;2.80;1.10;;;;;20.60;100436.00;;;;2075622;28;20245;-47
2021/03/27 05:32:28;;;;;;;2.42;1.50;;;;;20.60;100430.00;;;;2076447;28;20930;-46
2021/03/27 05:33:31;;;;;;;3.17;1.40;;;;;20.60;100428.00;;;;2075330;28;20333;-47
2021/03/27 05:34:42;;;;;;;5.25;1.40;;;;;20.60;100433.00;;;;2077215;28;20221;-47
2021/03/27 05:35:46;;;;;;;2.10;1.30;;;;;20.60;100427.00;;;;2076981;28;20281;-46
2021/03/27 05:36:57;;;;;;;1.77;1.00;;;;;20.60;100437.00;;;;2062280;28;20222;-46
2021/03/27 05:38:17;;;;;;;2.40;1.25;;;;;20.60;100428.00;;;;2069833;28;20310;-47
2021/03/27 05:39:33;;;;;;;2.25;1.45;;;;;20.60;100440.00;;;;2077090;28;20233;-47
2021/03/27 05:40:40;;;;;;;3.60;1.40;;;;;20.60;100429.00;;;;2069831;28;20702;-47
2021/03/27 05:41:45;;;;;;;1.85;1.02;;;;;20.50;100428.00;;;;2070318;28;20613;-47
2021/03/27 05:42:48;;;;;;;1.75;1.10;;;;;20.50;100421.00;;;;2069402;28;20266;-48
2021/03/27 05:44:07;;;;;;;2.13;0.90;;;;;20.60;100419.00;;;;2068545;28;20239;-47
2021/03/27 05:45:41;;;;;;;2.92;1.23;;;;;20.50;100421.00;;;;2075468;28;20268;-47
2021/03/27 05:47:07;;;;;;;1.10;0.88;;;;;20.50;100426.00;;;;2077222;28;20568;-47
2021/03/27 05:48:33;;;;;;;1.33;0.90;;;;;20.60;100430.00;;;;2077617;28;20231;-47
2021/03/27 05:50:07;;;;;;;2.28;1.02;;;;;20.50;100432.00;;;;2076545;28;20221;-46
2021/03/27 05:51:37;;;;;;;2.67;1.20;;;;;20.50;100436.00;;;;2076909;28;20245;-48
2021/03/27 05:53:04;;;;;;;2.55;1.25;;;;;20.50;100421.00;;;;2076303;28;20722;-46
2021/03/27 05:54:24;;;;;;;2.88;1.40;;;;;20.50;100428.00;;;;2064116;28;20337;-48
2021/03/27 05:55:42;;;;;;;2.53;1.08;;;;;20.50;100426.00;;;;2048882;28;20215;-47
2021/03/27 05:56:54;;;;;;;2.75;1.05;;;;;20.50;100449.00;;;;2071113;28;20238;-46
2021/03/27 05:58:22;;;;;;;1.73;1.10;;;;;20.50;100432.00;;;;2075604;28;20222;-47
2021/03/27 05:59:34;;;;;;;2.85;1.40;;;;;20.50;100446.00;;;;2076790;28;20217;-47
2021/03/27 06:00:55;;;;;;;2.97;1.10;;;;;20.50;100443.00;;;;2076360;28;20248;-47
2021/03/27 06:02:29;;;;;;;1.58;0.95;;;;;20.50;100443.00;;;;2068503;28;20222;-48
2021/03/27 06:03:56;;;;;;;1.85;1.23;;;;;20.50;100452.00;;;;2075207;28;20222;-47